Time;durP1;ratioP1;P1;durP2;ratioP2;P2;SDS_P1;SDS_P2;PMS_P1;PMS_P2;Temp;Humidity;BMP_temperature;BMP_pressure;BME280_temperature;BME280_humidity;BME280_pressure;Samples;Min_cycle;Max_cycle;Signal;HPM_P1;HPM_P2
2022/09/30 00:01:31;;;;;;;8.45;6.88;;;16.70;1.00;;;;;;5088149;28;20024;-53
2022/09/30 00:03:58;;;;;;;7.18;6.25;;;16.70;1.00;;;;;;5094017;28;20028;-48
2022/09/30 00:06:25;;;;;;;6.60;6.00;;;16.70;1.00;;;;;;5088565;28;20077;-47
2022/09/30 00:08:52;;;;;;;9.80;6.45;;;16.60;1.00;;;;;;5094216;28;20059;-52
2022/09/30 00:11:20;;;;;;;7.00;6.30;;;16.70;1.00;;;;;;5093121;28;20031;-52
2022/09/30 00:13:49;;;;;;;7.68;6.97;;;16.70;1.00;;;;;;5092726;28;20062;-47
2022/09/30 00:16:17;;;;;;;7.97;7.28;;;16.70;1.00;;;;;;5093031;28;20020;-49
2022/09/30 00:18:43;;;;;;;6.20;5.63;;;16.70;1.00;;;;;;5093921;28;20024;-51
2022/09/30 00:21:11;;;;;;;6.95;6.25;;;16.70;1.00;;;;;;5089011;28;20039;-50
2022/09/30 00:23:37;;;;;;;6.85;6.13;;;16.70;1.00;;;;;;5093449;28;20158;-48
2022/09/30 00:26:06;;;;;;;8.98;6.32;;;16.60;1.00;;;;;;5092499;28;20039;-48
2022/09/30 00:28:33;;;;;;;6.65;6.05;;;16.60;1.00;;;;;;5093588;28;20031;-47
2022/09/30 00:31:05;;;;;;;6.25;5.43;;;16.50;1.00;;;;;;5092407;28;20038;-47
2022/09/30 00:33:31;;;;;;;5.68;5.18;;;16.60;1.00;;;;;;5093541;28;20016;-47
2022/09/30 00:35:56;;;;;;;4.82;4.32;;;16.60;1.00;;;;;;5088014;28;20032;-48
2022/09/30 00:38:22;;;;;;;5.25;4.75;;;16.60;1.00;;;;;;5087139;28;20048;-48
2022/09/30 00:40:48;;;;;;;4.90;4.35;;;16.50;1.00;;;;;;5081532;28;20074;-47
2022/09/30 00:43:19;;;;;;;5.07;4.63;;;16.60;1.00;;;;;;5093102;28;20108;-47
2022/09/30 00:45:58;;;;;;;4.20;3.90;;;16.60;1.00;;;;;;5086961;28;20220;-47
2022/09/30 00:48:32;;;;;;;5.75;4.22;;;16.60;1.00;;;;;;5093472;28;20016;-49
2022/09/30 00:50:59;;;;;;;;;;;16.60;1.00;;;;;;5087969;28;20076;-47
2022/09/30 00:53:42;;;;;;;4.50;4.10;;;16.60;1.00;;;;;;5093036;28;19947;-47
2022/09/30 00:56:12;;;;;;;5.47;4.30;;;16.60;1.00;;;;;;5092007;28;20565;-47
2022/09/30 00:58:45;;;;;;;4.70;3.90;;;16.50;1.00;;;;;;5092905;28;20028;-47
2022/09/30 01:01:13;;;;;;;4.73;4.33;;;16.50;1.00;;;;;;5086454;28;20102;-47
2022/09/30 01:03:49;;;;;;;7.30;5.10;;;16.50;1.00;;;;;;5083420;28;20285;-48
2022/09/30 01:06:15;;;;;;;4.20;3.80;;;16.50;1.00;;;;;;5087970;28;20093;-48
2022/09/30 01:12:10;;;;;;;4.53;3.85;;;16.50;1.00;;;;;;5088232;28;20054;-48
2022/09/30 01:14:37;;;;;;;4.55;4.15;;;16.50;1.00;;;;;;5091849;28;20063;-48
2022/09/30 01:17:20;;;;;;;5.13;4.13;;;16.60;1.00;;;;;;5086140;28;20036;-46
2022/09/30 01:20:05;;;;;;;4.45;4.05;;;16.60;1.00;;;;;;5086311;28;20450;-47
2022/09/30 01:23:01;;;;;;;4.00;3.53;;;16.60;1.00;;;;;;5088331;28;20093;-47
2022/09/30 01:25:42;;;;;;;6.88;4.03;;;16.60;1.00;;;;;;5091134;28;20058;-47
2022/09/30 01:28:11;;;;;;;4.40;3.92;;;16.60;1.00;;;;;;5091838;28;20397;-46
2022/09/30 01:30:39;;;;;;;6.82;4.60;;;16.40;1.00;;;;;;5087923;28;20043;-46
2022/09/30 01:33:11;;;;;;;5.88;4.22;;;16.50;1.00;;;;;;5081946;28;20024;-47
2022/09/30 01:36:04;;;;;;;4.72;4.30;;;16.60;1.00;;;;;;5088229;28;20535;-49
2022/09/30 01:38:48;;;;;;;4.45;4.05;;;16.50;1.00;;;;;;5084836;28;20027;-47
2022/09/30 01:41:37;;;;;;;4.25;3.67;;;16.50;1.00;;;;;;5090370;28;20028;-50
2022/09/30 01:44:08;;;;;;;4.90;4.45;;;16.50;1.00;;;;;;5091433;28;20488;-49
2022/09/30 01:46:42;;;;;;;7.53;4.28;;;16.30;1.00;;;;;;5090073;28;20040;-47
2022/09/30 01:50:02;;;;;;;4.22;3.83;;;16.50;1.00;;;;;;5091577;28;20031;-49
2022/09/30 01:52:34;;;;;;;5.18;4.68;;;16.50;1.00;;;;;;5099302;28;20406;-46
2022/09/30 01:55:11;;;;;;;6.00;4.70;;;16.50;1.00;;;;;;5090548;28;20035;-47
2022/09/30 01:58:05;;;;;;;5.60;5.10;;;16.50;1.00;;;;;;5090471;28;20028;-49
2022/09/30 02:00:35;;;;;;;5.00;4.60;;;16.40;1.00;;;;;;5089625;28;20072;-47
2022/09/30 02:03:08;;;;;;;5.65;5.05;;;16.40;1.00;;;;;;5090470;28;20162;-47
2022/09/30 02:05:54;;;;;;;5.43;4.90;;;16.50;1.00;;;;;;5090254;28;20027;-46
2022/09/30 02:08:38;;;;;;;5.38;4.88;;;16.40;1.00;;;;;;5077996;28;20016;-52
2022/09/30 02:11:30;;;;;;;5.30;4.80;;;16.40;1.00;;;;;;5086658;28;20378;-47
2022/09/30 02:14:05;;;;;;;5.28;4.53;;;16.50;1.00;;;;;;5086724;28;20652;-49
2022/09/30 02:16:37;;;;;;;6.00;4.72;;;16.50;1.00;;;;;;5085674;28;20077;-48
2022/09/30 02:19:13;;;;;;;5.80;5.05;;;16.50;1.00;;;;;;5091328;28;20422;-49
2022/09/30 02:21:42;;;;;;;6.20;5.25;;;16.60;1.00;;;;;;5090281;28;20162;-47
2022/09/30 02:24:11;;;;;;;5.78;5.18;;;16.50;1.00;;;;;;5091650;28;20080;-48
2022/09/30 02:26:40;;;;;;;6.07;5.28;;;16.50;1.00;;;;;;5089744;28;20024;-48
2022/09/30 02:29:17;;;;;;;6.78;4.80;;;16.60;1.00;;;;;;5091696;28;20034;-48
2022/09/30 02:31:45;;;;;;;5.40;4.90;;;16.60;1.00;;;;;;5088176;28;20395;-49
2022/09/30 02:34:18;;;;;;;6.28;5.35;;;16.60;1.00;;;;;;5090926;28;20038;-49
2022/09/30 02:37:04;;;;;;;6.65;6.00;;;16.70;1.00;;;;;;5080510;28;20028;-46
2022/09/30 02:39:36;;;;;;;6.35;5.75;;;16.70;1.00;;;;;;5087320;28;20127;-47
2022/09/30 02:42:13;;;;;;;6.63;6.07;;;16.70;1.00;;;;;;5087012;28;20027;-47
2022/09/30 02:44:39;;;;;;;6.07;5.40;;;16.70;1.00;;;;;;5091817;28;20087;-46
2022/09/30 02:47:15;;;;;;;6.65;5.88;;;16.70;1.00;;;;;;5091899;28;20064;-46
2022/09/30 02:50:00;;;;;;;8.05;5.55;;;16.60;1.00;;;;;;5095805;28;20035;-46
2022/09/30 02:52:54;;;;;;;7.28;5.25;;;16.60;1.00;;;;;;5091360;28;20051;-47
2022/09/30 02:55:48;;;;;;;4.95;4.50;;;16.50;1.00;;;;;;5089761;28;20034;-50
2022/09/30 02:58:17;;;;;;;4.50;4.10;;;16.60;1.00;;;;;;5092503;28;20020;-49
2022/09/30 03:00:43;;;;;;;6.97;4.20;;;16.60;1.00;;;;;;5081166;28;20104;-48
2022/09/30 03:03:28;;;;;;;5.47;4.07;;;16.60;1.00;;;;;;5097909;28;20056;-47
2022/09/30 03:05:54;;;;;;;3.97;3.67;;;16.60;1.00;;;;;;5087555;28;20030;-48
2022/09/30 03:08:19;;;;;;;6.03;3.80;;;16.60;1.00;;;;;;5094313;28;20043;-48
2022/09/30 03:10:50;;;;;;;3.45;3.15;;;16.60;1.00;;;;;;5094953;28;20063;-48
2022/09/30 03:13:57;;;;;;;5.28;3.63;;;16.60;1.00;;;;;;5094490;28;20032;-47
2022/09/30 03:16:32;;;;;;;3.13;2.80;;;16.50;1.00;;;;;;5092898;28;20089;-47
2022/09/30 03:19:27;;;;;;;4.95;2.97;;;16.50;1.00;;;;;;5095100;28;20036;-47
2022/09/30 03:22:05;;;;;;;3.53;2.60;;;16.50;1.00;;;;;;5093783;28;20535;-48
2022/09/30 03:25:01;;;;;;;2.25;1.92;;;16.50;1.00;;;;;;5095415;28;20048;-52
2022/09/30 03:27:32;;;;;;;3.17;2.88;;;16.40;1.00;;;;;;5091515;28;20389;-48
2022/09/30 03:30:08;;;;;;;5.22;2.22;;;16.40;1.00;;;;;;5094622;28;20024;-48
2022/09/30 03:32:33;;;;;;;2.67;2.40;;;16.50;1.00;;;;;;5094110;28;20036;-49
2022/09/30 03:35:22;;;;;;;3.78;2.30;;;16.50;1.00;;;;;;5094753;28;20030;-47
2022/09/30 03:38:15;;;;;;;2.67;2.03;;;16.50;1.00;;;;;;5076204;28;20036;-47
2022/09/30 03:40:58;;;;;;;2.42;2.22;;;16.60;1.00;;;;;;5094348;28;20027;-52
2022/09/30 03:43:37;;;;;;;3.88;2.55;;;16.60;1.00;;;;;;5093043;28;20032;-47
2022/09/30 03:46:12;;;;;;;2.20;2.00;;;16.60;1.00;;;;;;5094418;28;20048;-48
2022/09/30 03:48:40;;;;;;;4.22;2.15;;;16.60;1.00;;;;;;5094398;28;20416;-51
2022/09/30 03:51:07;;;;;;;5.18;2.28;;;16.70;1.00;;;;;;5093657;28;20055;-48
2022/09/30 03:53:39;;;;;;;2.80;2.50;;;16.60;1.00;;;;;;5092312;28;20081;-51
2022/09/30 03:56:04;;;;;;;3.50;2.20;;;16.60;1.00;;;;;;5085078;28;20017;-48
2022/09/30 03:58:30;;;;;;;2.05;1.90;;;16.60;1.00;;;;;;5078709;28;20523;-51
2022/09/30 04:00:56;;;;;;;2.75;2.08;;;16.70;1.00;;;;;;5094372;28;20381;-49
2022/09/30 04:03:22;;;;;;;2.97;2.13;;;16.70;1.00;;;;;;5093481;28;20012;-50
2022/09/30 04:05:48;;;;;;;2.92;2.40;;;16.60;1.00;;;;;;5094126;28;20028;-49
2022/09/30 04:08:14;;;;;;;2.42;2.08;;;16.70;1.00;;;;;;5088154;28;20419;-49
2022/09/30 04:10:42;;;;;;;3.03;2.17;;;16.70;1.00;;;;;;5073638;28;20335;-51
2022/09/30 04:13:09;;;;;;;3.65;2.40;;;16.70;1.00;;;;;;5093805;28;20024;-47
2022/09/30 04:15:35;;;;;;;4.63;2.10;;;16.70;1.00;;;;;;5093224;28;20443;-50
2022/09/30 04:18:04;;;;;;;3.47;2.33;;;16.60;1.00;;;;;;5094031;28;20050;-51
2022/09/30 04:20:30;;;;;;;4.00;2.33;;;16.60;1.00;;;;;;5090987;28;20020;-48
2022/09/30 04:22:58;;;;;;;3.97;2.13;;;16.70;1.00;;;;;;5092528;28;20051;-48
2022/09/30 04:25:24;;;;;;;2.92;1.70;;;16.70;1.00;;;;;;5092444;28;20024;-47
2022/09/30 04:27:49;;;;;;;4.82;2.45;;;16.70;1.00;;;;;;5093811;28;20030;-49
2022/09/30 04:30:15;;;;;;;3.63;2.00;;;16.60;1.00;;;;;;5086868;28;20565;-48
2022/09/30 04:32:44;;;;;;;2.90;1.80;;;16.60;1.00;;;;;;5092578;28;20024;-47
2022/09/30 04:35:11;;;;;;;3.47;2.05;;;16.60;1.00;;;;;;5092633;28;20062;-48
2022/09/30 04:37:41;;;;;;;3.05;1.88;;;16.70;1.00;;;;;;5094033;28;20023;-48
2022/09/30 04:40:09;;;;;;;2.10;1.75;;;16.70;1.00;;;;;;5092823;28;20024;-47
2022/09/30 04:42:35;;;;;;;2.53;1.88;;;16.60;1.00;;;;;;5078366;28;20046;-48
2022/09/30 04:45:01;;;;;;;3.13;1.88;;;16.70;1.00;;;;;;5084344;28;20078;-51
2022/09/30 04:47:27;;;;;;;2.75;2.00;;;16.70;1.00;;;;;;5090126;28;20484;-51
2022/09/30 04:49:52;;;;;;;2.90;1.67;;;16.70;1.00;;;;;;5086304;28;20103;-51
2022/09/30 04:52:18;;;;;;;3.72;2.30;;;16.70;1.00;;;;;;5092766;28;20043;-51
2022/09/30 04:54:43;;;;;;;2.80;1.70;;;16.70;1.00;;;;;;5089262;28;20028;-48
2022/09/30 04:57:09;;;;;;;3.33;1.88;;;16.80;1.00;;;;;;5092315;28;20020;-47
2022/09/30 04:59:35;;;;;;;2.10;1.63;;;16.80;1.00;;;;;;5091923;28;20445;-52
2022/09/30 05:02:01;;;;;;;1.85;1.38;;;16.80;1.00;;;;;;5093206;28;20122;-54
2022/09/30 05:04:26;;;;;;;4.75;2.13;;;16.70;1.00;;;;;;5092175;28;20434;-48
2022/09/30 05:06:52;;;;;;;4.05;2.20;;;16.70;1.00;;;;;;5092462;28;20088;-51
2022/09/30 05:09:17;;;;;;;3.70;2.20;;;16.80;1.00;;;;;;5092289;28;20035;-55
2022/09/30 05:11:43;;;;;;;3.05;2.28;;;16.70;1.00;;;;;;5078922;28;20047;-50
2022/09/30 05:14:09;;;;;;;4.78;3.30;;;16.80;1.00;;;;;;5087716;28;20510;-51
2022/09/30 05:16:34;;;;;;;5.65;3.05;;;16.70;1.00;;;;;;5075740;28;20028;-51
2022/09/30 05:19:00;;;;;;;4.90;2.72;;;16.80;1.00;;;;;;5092826;28;20146;-49
2022/09/30 05:21:38;;;;;;;4.05;2.35;;;16.80;1.00;;;;;;5091034;28;20465;-51
2022/09/30 05:24:03;;;;;;;3.22;2.75;;;16.50;1.00;;;;;;5092679;28;20074;-53
2022/09/30 05:26:29;;;;;;;2.85;2.58;;;16.40;1.00;;;;;;5091477;28;20109;-51
2022/09/30 05:28:54;;;;;;;5.63;3.00;;;16.50;1.00;;;;;;5092532;28;20092;-51
2022/09/30 05:31:20;;;;;;;4.03;3.03;;;16.40;1.00;;;;;;5091652;28;20028;-51
2022/09/30 05:33:46;;;;;;;4.05;2.50;;;16.30;1.00;;;;;;5092495;28;20105;-53
2022/09/30 05:36:14;;;;;;;2.30;2.10;;;16.30;1.00;;;;;;5091517;28;20085;-50
2022/09/30 05:38:40;;;;;;;4.60;2.95;;;16.40;1.00;;;;;;5092348;28;20031;-52
2022/09/30 05:41:10;;;;;;;3.78;2.80;;;16.40;1.00;;;;;;5087724;28;20071;-50
2022/09/30 05:43:40;;;;;;;3.72;2.20;;;16.50;1.00;;;;;;5092086;28;20103;-48
2022/09/30 05:46:06;;;;;;;3.30;1.90;;;16.50;1.00;;;;;;5090270;28;20502;-50
2022/09/30 05:48:31;;;;;;;2.63;1.80;;;16.40;1.00;;;;;;5092269;28;20119;-47
2022/09/30 05:51:00;;;;;;;3.08;1.95;;;16.50;1.00;;;;;;5083710;28;20194;-52
2022/09/30 05:53:27;;;;;;;1.98;1.80;;;16.40;1.00;;;;;;5091860;28;20423;-50
2022/09/30 05:55:52;;;;;;;2.45;1.67;;;16.20;1.00;;;;;;5090467;28;20477;-51
2022/09/30 05:58:19;;;;;;;2.92;1.83;;;16.20;1.00;;;;;;5092032;28;20028;-48
2022/09/30 06:00:46;;;;;;;1.58;1.48;;;16.30;1.00;;;;;;5091132;28;20016;-52
2022/09/30 06:03:13;;;;;;;2.05;0.93;;;16.40;1.00;;;;;;5092238;28;20035;-51
2022/09/30 06:05:38;;;;;;;3.17;1.40;;;16.40;1.00;;;;;;5084303;28;20024;-49
2022/09/30 06:08:06;;;;;;;1.67;1.30;;;16.40;1.00;;;;;;5091681;28;20024;-49
2022/09/30 06:10:33;;;;;;;4.15;1.70;;;16.40;1.00;;;;;;5090702;28;20111;-47
2022/09/30 06:12:59;;;;;;;1.65;1.05;;;16.50;1.00;;;;;;5090965;28;20047;-51
2022/09/30 06:15:25;;;;;;;2.25;1.00;;;16.30;1.00;;;;;;5086013;28;20017;-48
2022/09/30 06:17:54;;;;;;;2.33;1.02;;;16.20;1.00;;;;;;5088121;28;20432;-47
2022/09/30 06:20:20;;;;;;;1.45;0.60;;;16.40;1.00;;;;;;5090659;28;20016;-48
2022/09/30 06:22:45;;;;;;;1.23;0.77;;;16.30;1.00;;;;;;5091659;28;20067;-50
2022/09/30 06:25:11;;;;;;;0.70;0.50;;;16.10;1.00;;;;;;5090670;28;20103;-48
2022/09/30 06:27:37;;;;;;;1.02;0.70;;;16.00;1.00;;;;;;5078513;28;20063;-49
2022/09/30 06:30:07;;;;;;;1.60;0.45;;;16.00;1.00;;;;;;5088696;28;20020;-51
2022/09/30 06:32:32;;;;;;;2.85;1.00;;;16.00;1.00;;;;;;5086096;28;20036;-48
2022/09/30 06:34:58;;;;;;;1.98;0.80;;;16.20;1.00;;;;;;5083243;28;20035;-53
2022/09/30 06:37:24;;;;;;;3.17;0.73;;;16.30;1.00;;;;;;5085715;28;20028;-50
2022/09/30 06:39:50;;;;;;;1.27;0.45;;;16.10;1.00;;;;;;5091214;28;20113;-49
2022/09/30 06:42:19;;;;;;;0.60;0.60;;;15.90;1.00;;;;;;5090539;28;20459;-51
2022/09/30 06:44:45;;;;;;;0.95;0.60;;;16.10;1.00;;;;;;5089001;28;20150;-51
2022/09/30 06:47:12;;;;;;;4.03;1.02;;;16.30;1.00;;;;;;5079225;28;20529;-53
2022/09/30 06:49:39;;;;;;;0.98;0.77;;;16.30;1.00;;;;;;5087999;28;20078;-49
2022/09/30 06:52:05;;;;;;;2.65;0.80;;;16.30;1.00;;;;;;5086051;28;20102;-51
2022/09/30 06:54:30;;;;;;;1.90;0.85;;;16.30;1.00;;;;;;5091148;28;20028;-49
2022/09/30 06:56:56;;;;;;;1.35;0.60;;;16.20;1.00;;;;;;5089683;28;20043;-48
2022/09/30 06:59:23;;;;;;;0.50;0.32;;;16.30;1.00;;;;;;5091437;28;20020;-48
2022/09/30 07:01:49;;;;;;;1.42;0.70;;;16.30;1.00;;;;;;5090529;28;20024;-54
2022/09/30 07:04:15;;;;;;;1.85;1.02;;;16.20;1.00;;;;;;5075587;28;20044;-48
2022/09/30 07:06:41;;;;;;;0.95;0.80;;;16.20;1.00;;;;;;5086396;28;20027;-50
2022/09/30 07:09:07;;;;;;;1.38;0.55;;;16.30;1.00;;;;;;5088170;28;20024;-48
2022/09/30 07:11:33;;;;;;;1.98;0.70;;;16.30;1.00;;;;;;5090532;28;20035;-50
2022/09/30 07:13:59;;;;;;;2.35;0.63;;;16.30;1.00;;;;;;5091382;28;20081;-51
2022/09/30 07:16:25;;;;;;;1.67;1.00;;;16.30;1.00;;;;;;5076767;28;20024;-52
2022/09/30 07:18:50;;;;;;;1.67;1.00;;;16.40;1.00;;;;;;5091305;28;20021;-51
2022/09/30 07:21:16;;;;;;;1.05;0.75;;;16.40;1.00;;;;;;5090306;28;20036;-53
2022/09/30 07:23:48;;;;;;;3.63;1.45;;;16.40;1.00;;;;;;5089409;28;20051;-51
2022/09/30 07:26:20;;;;;;;1.25;0.90;;;16.40;1.00;;;;;;5089000;28;20028;-53
2022/09/30 07:28:46;;;;;;;2.17;1.23;;;16.50;1.00;;;;;;5090948;28;20175;-49
2022/09/30 07:31:16;;;;;;;2.72;1.17;;;16.50;1.00;;;;;;5091586;28;20097;-45
2022/09/30 07:33:42;;;;;;;4.28;1.42;;;16.50;1.00;;;;;;5088833;28;20515;-45
2022/09/30 07:36:09;;;;;;;1.30;1.20;;;16.60;1.00;;;;;;5082557;28;20089;-44
2022/09/30 07:38:39;;;;;;;3.55;1.45;;;16.60;1.00;;;;;;5094080;28;20039;-45
2022/09/30 07:41:11;;;;;;;4.00;1.15;;;16.50;1.00;;;;;;5086975;28;20036;-46
2022/09/30 07:43:39;;;;;;;2.50;1.40;;;16.50;1.00;;;;;;5092797;28;20448;-44
2022/09/30 07:46:32;;;;;;;3.83;1.77;;;16.30;1.00;;;;;;5091569;28;20048;-45
2022/09/30 07:49:00;;;;;;;4.35;2.45;;;16.20;1.00;;;;;;5077562;28;20134;-46
2022/09/30 07:51:30;;;;;;;4.32;1.52;;;16.10;1.00;;;;;;5092262;28;20473;-47
2022/09/30 07:54:02;;;;;;;2.35;1.60;;;16.00;1.00;;;;;;5094433;28;20020;-44
2022/09/30 07:56:28;;;;;;;4.32;2.00;;;16.20;1.00;;;;;;5084388;28;20066;-47
2022/09/30 07:58:55;;;;;;;2.28;1.50;;;16.20;1.00;;;;;;5092571;28;20042;-48
2022/09/30 08:01:21;;;;;;;3.05;1.60;;;16.20;1.00;;;;;;5092197;28;20017;-46
2022/09/30 08:03:50;;;;;;;2.30;1.48;;;16.40;1.00;;;;;;5075959;28;20047;-49
2022/09/30 08:06:17;;;;;;;2.58;1.38;;;16.40;1.00;;;;;;5093038;28;20507;-48
2022/09/30 08:08:44;;;;;;;2.80;1.50;;;16.40;1.00;;;;;;5094088;28;20056;-52
2022/09/30 08:11:11;;;;;;;1.88;1.42;;;16.40;1.00;;;;;;5090386;28;20027;-48
2022/09/30 08:13:37;;;;;;;5.88;1.85;;;16.40;1.00;;;;;;5082869;28;20054;-44
2022/09/30 08:16:03;;;;;;;2.95;2.03;;;16.50;1.00;;;;;;5092879;28;20012;-41
2022/09/30 08:18:29;;;;;;;3.47;2.25;;;16.50;1.00;;;;;;5092459;28;20035;-44
2022/09/30 08:20:55;;;;;;;5.13;1.63;;;16.60;1.00;;;;;;5092995;28;20020;-42
2022/09/30 08:23:21;;;;;;;5.32;2.33;;;16.60;1.00;;;;;;5093566;28;20129;-47
2022/09/30 08:25:46;;;;;;;5.13;2.20;;;16.70;1.00;;;;;;5091644;28;20690;-46
2022/09/30 08:28:13;;;;;;;5.38;2.30;;;16.60;1.00;;;;;;5093850;28;20024;-50
2022/09/30 08:30:39;;;;;;;3.38;1.90;;;16.80;1.00;;;;;;5092685;28;20038;-42
2022/09/30 08:33:05;;;;;;;3.17;2.53;;;16.70;1.00;;;;;;5093370;28;20430;-45
2022/09/30 08:35:33;;;;;;;3.47;2.17;;;16.80;1.00;;;;;;5084586;28;20067;-43
2022/09/30 08:38:05;;;;;;;3.70;2.47;;;16.90;1.00;;;;;;5091449;28;20040;-42
2022/09/30 08:40:36;;;;;;;3.15;2.20;;;16.90;1.00;;;;;;5081255;28;20032;-44
2022/09/30 08:43:21;;;;;;;4.15;2.47;;;16.90;1.00;;;;;;5087309;28;20371;-48
2022/09/30 08:46:02;;;;;;;3.35;2.22;;;16.80;1.00;;;;;;5090793;28;20109;-49
2022/09/30 08:48:55;;;;;;;4.20;3.13;;;16.90;1.00;;;;;;5093768;28;20450;-50
2022/09/30 08:51:32;;;;;;;4.70;2.80;;;16.90;1.00;;;;;;5092207;28;20075;-50
2022/09/30 08:54:01;;;;;;;4.55;3.13;;;16.90;1.00;;;;;;5093128;28;20040;-46
2022/09/30 08:56:30;;;;;;;7.05;3.42;;;17.00;1.00;;;;;;5084499;28;20035;-52
2022/09/30 08:59:03;;;;;;;4.63;3.17;;;16.90;1.00;;;;;;5091347;28;20464;-48
2022/09/30 09:01:33;;;;;;;6.70;3.70;;;16.90;1.00;;;;;;5090467;28;20027;-46
2022/09/30 09:04:01;;;;;;;6.35;3.97;;;16.90;1.00;;;;;;5086194;28;20046;-46
2022/09/30 09:06:35;;;;;;;5.32;4.82;;;17.00;1.00;;;;;;5086543;28;20033;-47
2022/09/30 09:09:15;;;;;;;5.03;3.75;;;17.00;1.00;;;;;;5092464;28;20111;-45
2022/09/30 09:12:13;;;;;;;5.22;4.43;;;17.10;1.00;;;;;;5084382;28;20067;-44
2022/09/30 09:14:51;;;;;;;5.35;4.60;;;17.10;1.00;;;;;;5078777;28;20107;-43
2022/09/30 09:17:28;;;;;;;5.75;4.82;;;17.10;1.00;;;;;;5080354;28;20427;-44
2022/09/30 09:19:53;;;;;;;6.78;4.40;;;17.10;1.00;;;;;;5092953;28;20031;-44
2022/09/30 09:22:19;;;;;;;15.35;5.20;;;17.10;1.00;;;;;;5086680;28;20028;-44
2022/09/30 09:24:47;;;;;;;7.53;4.57;;;17.20;1.00;;;;;;5092211;28;20020;-45
2022/09/30 09:27:29;;;;;;;5.35;4.50;;;17.20;1.00;;;;;;5080693;28;20036;-45
2022/09/30 09:30:00;;;;;;;8.48;3.72;;;17.20;1.00;;;;;;5087438;28;20162;-47
2022/09/30 09:32:27;;;;;;;4.55;3.88;;;17.20;1.00;;;;;;5081183;28;20047;-46
2022/09/30 09:34:59;;;;;;;7.22;3.85;;;17.20;1.00;;;;;;5087154;28;20124;-43
2022/09/30 09:40:55;;;;;;;9.73;4.05;;;17.10;1.00;;;;;;5086189;28;20468;-49
2022/09/30 09:43:48;;;;;;;7.32;4.55;;;17.10;1.00;;;;;;5089557;28;20071;-49
2022/09/30 09:46:29;;;;;;;6.40;5.75;;;16.90;1.00;;;;;;5081232;28;20067;-50
2022/09/30 09:49:26;;;;;;;10.48;5.40;;;16.90;1.00;;;;;;5077988;28;20028;-45
2022/09/30 09:51:59;;;;;;;6.55;5.45;;;17.10;1.00;;;;;;5083620;28;20059;-47
2022/09/30 09:54:29;;;;;;;7.15;5.18;;;17.10;1.00;;;;;;5075149;28;20761;-46
2022/09/30 09:56:55;;;;;;;6.25;4.93;;;17.10;1.00;;;;;;5090034;28;20032;-46
2022/09/30 09:59:21;;;;;;;6.68;5.45;;;17.10;1.00;;;;;;5083943;28;20035;-47
2022/09/30 10:01:52;;;;;;;6.63;5.43;;;17.10;1.00;;;;;;5089378;28;20028;-46
2022/09/30 10:04:28;;;;;;;5.72;4.65;;;17.20;1.00;;;;;;5083880;28;20021;-50
2022/09/30 10:07:01;;;;;;;9.15;5.35;;;17.10;1.00;;;;;;5088056;28;20119;-49
2022/09/30 10:09:36;;;;;;;7.38;4.93;;;17.20;1.00;;;;;;5091708;28;20501;-48
2022/09/30 10:12:05;;;;;;;7.95;5.38;;;17.10;1.00;;;;;;5081872;28;20024;-49
2022/09/30 10:14:47;;;;;;;6.97;4.72;;;17.20;1.00;;;;;;5077006;28;20032;-47
2022/09/30 10:17:21;;;;;;;6.25;4.85;;;17.20;1.00;;;;;;5082806;28;20055;-43
2022/09/30 10:19:52;;;;;;;10.60;5.05;;;17.20;1.00;;;;;;5086940;28;20043;-43
2022/09/30 10:22:23;;;;;;;6.45;5.35;;;17.20;1.00;;;;;;5083383;28;20020;-44
2022/09/30 10:24:49;;;;;;;6.68;5.00;;;17.20;1.00;;;;;;5092274;28;20020;-50
2022/09/30 10:27:33;;;;;;;10.10;5.50;;;17.20;1.00;;;;;;5099565;28;20486;-46
2022/09/30 10:29:58;;;;;;;7.53;4.47;;;17.30;1.00;;;;;;5090037;28;20028;-47
2022/09/30 10:32:25;;;;;;;11.25;4.88;;;17.40;1.00;;;;;;5084876;28;20032;-46
2022/09/30 10:35:00;;;;;;;6.63;4.97;;;17.40;1.00;;;;;;5091799;28;20024;-47
2022/09/30 10:37:26;;;;;;;7.45;5.03;;;17.50;1.00;;;;;;5086908;28;20031;-43
2022/09/30 10:39:56;;;;;;;8.77;6.22;;;17.40;1.00;;;;;;5085879;28;20024;-43
2022/09/30 10:42:26;;;;;;;10.32;6.22;;;17.50;1.00;;;;;;5089813;28;20051;-42
2022/09/30 10:44:55;;;;;;;9.27;6.50;;;17.50;1.00;;;;;;5084647;28;20046;-45
2022/09/30 10:47:26;;;;;;;12.95;7.00;;;17.50;1.00;;;;;;5082023;28;20021;-44
2022/09/30 10:50:16;;;;;;;10.40;7.07;;;17.40;1.00;;;;;;5088225;28;20365;-45
2022/09/30 10:53:04;;;;;;;9.90;6.78;;;17.50;1.00;;;;;;5080433;28;20036;-45
2022/09/30 10:55:34;;;;;;;7.85;5.93;;;17.50;1.00;;;;;;5083697;28;20183;-48
2022/09/30 10:58:18;;;;;;;6.45;5.75;;;17.60;1.00;;;;;;5087295;28;20517;-46
2022/09/30 11:00:46;;;;;;;7.47;6.33;;;17.70;1.00;;;;;;5106901;28;20132;-45
2022/09/30 11:03:24;;;;;;;9.30;6.57;;;17.60;1.00;;;;;;5089825;28;20265;-47
2022/09/30 11:05:49;;;;;;;8.30;7.22;;;17.70;1.00;;;;;;5086566;28;20036;-49
2022/09/30 11:08:28;;;;;;;9.93;6.85;;;17.80;1.00;;;;;;5091957;28;20097;-47
2022/09/30 11:11:13;;;;;;;7.72;6.38;;;17.60;1.00;;;;;;5094908;28;20047;-52
2022/09/30 11:13:56;;;;;;;11.90;7.50;;;17.60;1.00;;;;;;5089967;28;20028;-46
2022/09/30 11:16:43;;;;;;;8.05;5.45;;;17.70;1.00;;;;;;5077588;28;20024;-45
2022/09/30 11:19:12;;;;;;;6.45;5.55;;;17.70;1.00;;;;;;5087748;28;20024;-48
2022/09/30 11:22:07;;;;;;;6.32;4.75;;;17.70;1.00;;;;;;5086803;28;20024;-51
2022/09/30 11:24:47;;;;;;;5.97;5.07;;;17.60;1.00;;;;;;5084938;28;20020;-48
2022/09/30 11:27:45;;;;;;;5.13;4.50;;;17.70;1.00;;;;;;5087492;28;20038;-47
2022/09/30 11:30:19;;;;;;;5.85;4.88;;;17.70;1.00;;;;;;5069716;28;20039;-47
2022/09/30 11:33:03;;;;;;;;;;;17.90;1.00;;;;;;5088173;28;20041;-48
2022/09/30 11:35:50;;;;;;;5.85;4.93;;;17.90;1.00;;;;;;5091380;28;19908;-48
2022/09/30 11:38:27;;;;;;;5.35;4.65;;;18.10;1.00;;;;;;5093616;28;20032;-45
2022/09/30 11:41:20;;;;;;;7.47;5.53;;;18.00;1.00;;;;;;5088061;28;20542;-47
2022/09/30 11:44:21;;;;;;;6.18;4.32;;;18.00;1.00;;;;;;5091285;28;20444;-49
2022/09/30 11:46:50;;;;;;;6.82;4.97;;;18.10;1.00;;;;;;5085331;28;20032;-48
2022/09/30 11:49:41;;;;;;;8.30;7.50;;;18.10;1.00;;;;;;5092445;28;20478;-46
2022/09/30 11:52:17;;;;;;;7.72;4.65;;;18.10;1.00;;;;;;5084333;28;20493;-48
2022/09/30 11:55:07;;;;;;;6.05;4.53;;;17.50;1.00;;;;;;5094603;28;20382;-50
2022/09/30 11:57:55;;;;;;;5.05;4.20;;;17.10;1.00;;;;;;5091266;28;20146;-46
2022/09/30 12:00:21;;;;;;;6.10;4.25;;;16.60;1.00;;;;;;5094138;28;20028;-45
2022/09/30 12:03:00;;;;;;;5.13;4.72;;;16.10;1.00;;;;;;5091198;28;20492;-47
2022/09/30 12:05:34;;;;;;;6.13;4.80;;;16.40;1.00;;;;;;5092734;28;20153;-46
2022/09/30 12:08:11;;;;;;;8.00;6.03;;;17.10;1.00;;;;;;5089192;28;20118;-44
2022/09/30 12:10:43;;;;;;;12.45;4.93;;;17.40;1.00;;;;;;5085694;28;20468;-51
2022/09/30 12:13:14;;;;;;;6.28;4.28;;;16.90;1.00;;;;;;5078315;28;20533;-48
2022/09/30 12:15:43;;;;;;;4.63;4.20;;;16.70;1.00;;;;;;5081374;28;20036;-49
2022/09/30 12:18:15;;;;;;;6.03;5.28;;;16.50;1.00;;;;;;5087457;28;20028;-50
2022/09/30 12:20:57;;;;;;;5.55;5.05;;;16.40;1.00;;;;;;5089529;28;20020;-44
2022/09/30 12:23:30;;;;;;;4.50;4.10;;;16.50;1.00;;;;;;5071633;28;20482;-51
2022/09/30 12:25:58;;;;;;;5.72;3.75;;;17.10;1.00;;;;;;5076361;28;20043;-49
2022/09/30 12:32:18;;;;;;;4.15;3.45;;;17.40;1.00;;;;;;5073215;28;20051;-44
2022/09/30 12:35:18;;;;;;;5.47;4.75;;;17.50;1.00;;;;;;5069050;28;20046;-43
2022/09/30 12:38:11;;;;;;;4.07;3.67;;;17.50;1.00;;;;;;5081218;28;20036;-41
2022/09/30 12:40:55;;;;;;;3.92;2.50;;;17.40;1.00;;;;;;5081098;28;20099;-49
2022/09/30 12:43:42;;;;;;;5.88;4.00;;;17.60;1.00;;;;;;5082452;28;20089;-42
2022/09/30 12:46:29;;;;;;;3.80;3.13;;;17.50;1.00;;;;;;5078103;28;20056;-41
2022/09/30 12:49:02;;;;;;;5.72;2.90;;;17.70;1.00;;;;;;5078949;28;20035;-42
2022/09/30 12:51:37;;;;;;;5.88;3.05;;;17.80;1.00;;;;;;5075694;28;20028;-41
2022/09/30 12:54:20;;;;;;;4.20;3.35;;;17.70;1.00;;;;;;5084815;28;20036;-47
2022/09/30 12:56:59;;;;;;;4.82;3.30;;;17.70;1.00;;;;;;5088454;28;20032;-43
2022/09/30 12:59:29;;;;;;;7.65;4.20;;;17.70;1.00;;;;;;5090628;28;20032;-49
2022/09/30 13:01:57;;;;;;;5.22;3.80;;;17.60;1.00;;;;;;5081809;28;20180;-43
2022/09/30 13:04:34;;;;;;;4.93;3.38;;;17.60;1.00;;;;;;5082406;28;20120;-49
2022/09/30 13:06:59;;;;;;;4.18;2.95;;;17.60;1.00;;;;;;5096281;28;20036;-46
2022/09/30 13:09:55;;;;;;;4.80;3.47;;;17.80;1.00;;;;;;5080288;28;20032;-42
2022/09/30 13:12:52;;;;;;;4.50;4.00;;;17.80;1.00;;;;;;5090103;28;20535;-45
2022/09/30 13:15:27;;;;;;;3.47;2.60;;;17.90;1.00;;;;;;5076355;28;20060;-42
2022/09/30 13:17:52;;;;;;;4.00;2.85;;;17.90;1.00;;;;;;5080117;28;20123;-48
2022/09/30 13:20:53;;;;;;;3.88;2.95;;;17.70;1.00;;;;;;5082507;28;20151;-43
2022/09/30 13:23:38;;;;;;;2.63;1.77;;;17.80;1.00;;;;;;5082732;28;20109;-42
2022/09/30 13:26:25;;;;;;;4.95;2.50;;;17.80;1.00;;;;;;5087232;28;20036;-45
2022/09/30 13:28:57;;;;;;;3.58;2.10;;;17.90;1.00;;;;;;5080150;28;20122;-43
2022/09/30 13:31:25;;;;;;;4.00;2.90;;;17.90;1.00;;;;;;5082771;28;20051;-43
2022/09/30 13:34:02;;;;;;;4.15;2.47;;;18.20;1.00;;;;;;5077665;28;20474;-43
2022/09/30 13:36:37;;;;;;;4.38;2.70;;;18.50;1.00;;;;;;5076899;28;20409;-47
2022/09/30 13:39:05;;;;;;;;;;;18.60;1.00;;;;;;5080411;28;20378;-46